createdAt,value
2018-07-28T00:00:13.653Z,27.15
2018-07-28T00:01:14.371Z,27.15
2018-07-28T00:02:15.088Z,27.15
2018-07-28T00:03:15.806Z,27.18
2018-07-28T00:04:16.523Z,27.07
2018-07-28T00:05:17.242Z,27.20
2018-07-28T00:06:17.976Z,27.10
2018-07-28T00:07:18.697Z,27.05
2018-07-28T00:08:19.416Z,27.05
2018-07-28T00:09:20.132Z,27.02
2018-07-28T00:10:20.852Z,27.10
2018-07-28T00:11:21.579Z,27.11
2018-07-28T00:12:22.306Z,27.02
2018-07-28T00:13:23.037Z,26.97
2018-07-28T00:14:23.755Z,27.05
2018-07-28T00:15:24.473Z,27.02
2018-07-28T00:16:25.204Z,27.02
2018-07-28T00:17:25.922Z,27.05
2018-07-28T00:18:26.639Z,27.03
2018-07-28T00:19:27.370Z,26.99
2018-07-28T00:20:28.089Z,27.08
2018-07-28T00:21:28.810Z,27.03
2018-07-28T00:22:29.527Z,26.97
2018-07-28T00:23:30.260Z,26.93
2018-07-28T00:24:30.977Z,27.00
2018-07-28T00:25:31.715Z,26.93
2018-07-28T00:26:32.430Z,26.95
2018-07-28T00:27:33.164Z,26.84
2018-07-28T00:28:33.897Z,26.88
2018-07-28T00:29:34.620Z,26.88
2018-07-28T00:30:35.339Z,26.89
2018-07-28T00:31:36.063Z,26.78
2018-07-28T00:32:36.783Z,26.81
2018-07-28T00:33:37.505Z,26.85
2018-07-28T00:34:38.222Z,26.81
2018-07-28T00:35:38.954Z,26.80
2018-07-28T00:36:39.672Z,26.81
2018-07-28T00:37:40.392Z,26.83
2018-07-28T00:38:41.135Z,26.84
2018-07-28T00:39:41.859Z,26.77
2018-07-28T00:40:42.582Z,26.77
2018-07-28T00:41:43.312Z,26.73
2018-07-28T00:42:44.034Z,26.70
2018-07-28T00:43:44.757Z,26.78
2018-07-28T00:44:45.477Z,26.77
2018-07-28T00:45:46.197Z,26.74
2018-07-28T00:46:46.929Z,26.75
2018-07-28T00:47:47.650Z,26.65
2018-07-28T00:49:33.018Z,26.63
2018-07-28T00:50:33.740Z,26.66
2018-07-28T00:51:34.459Z,26.63
2018-07-28T00:52:35.178Z,26.58
2018-07-28T00:53:35.898Z,26.58
2018-07-28T00:54:36.631Z,26.51
2018-07-28T00:55:37.352Z,26.51
2018-07-28T00:56:38.072Z,26.56
2018-07-28T00:57:38.788Z,26.51
2018-07-28T00:58:39.523Z,26.45
2018-07-28T00:59:40.257Z,26.43
2018-07-28T01:00:40.979Z,26.47
2018-07-28T01:01:41.700Z,26.48
2018-07-28T01:02:42.422Z,26.38
2018-07-28T01:03:43.143Z,26.31
2018-07-28T01:04:43.876Z,26.38
2018-07-28T01:05:44.595Z,26.31
2018-07-28T01:06:45.316Z,26.31
2018-07-28T01:07:46.053Z,26.29
2018-07-28T01:08:46.774Z,26.28
2018-07-28T01:09:47.491Z,26.28
2018-07-28T01:10:48.228Z,26.25
2018-07-28T01:11:48.967Z,26.25
2018-07-28T01:12:49.685Z,26.22
2018-07-28T01:13:50.408Z,26.13
2018-07-28T01:14:51.143Z,26.16
2018-07-28T01:15:51.863Z,26.13
2018-07-28T01:16:52.582Z,26.05
2018-07-28T01:17:53.315Z,26.06
2018-07-28T01:18:54.037Z,26.09
2018-07-28T01:19:54.770Z,26.07
2018-07-28T01:20:55.500Z,25.99
2018-07-28T01:21:56.234Z,25.95
2018-07-28T01:22:56.953Z,26.02
2018-07-28T01:23:57.675Z,26.02
2018-07-28T01:24:58.398Z,25.91
2018-07-28T01:25:59.136Z,25.98
2018-07-28T01:26:59.871Z,26.00
2018-07-28T01:28:00.593Z,26.03
2018-07-28T01:29:01.318Z,25.88
2018-07-28T01:30:02.038Z,25.83
2018-07-28T01:31:02.761Z,25.87
2018-07-28T01:32:03.483Z,25.87
2018-07-28T01:33:04.206Z,25.85
2018-07-28T01:34:04.942Z,25.80
2018-07-28T01:35:05.666Z,25.81
2018-07-28T01:36:06.386Z,25.80
2018-07-28T01:37:07.112Z,25.78
2018-07-28T01:38:07.833Z,25.81
2018-07-28T01:39:08.569Z,25.85
2018-07-28T01:40:09.289Z,25.84
2018-07-28T01:41:10.026Z,25.81
2018-07-28T01:42:10.747Z,25.83
2018-07-28T01:43:11.470Z,25.80
2018-07-28T01:44:12.191Z,25.91
2018-07-28T01:45:12.915Z,25.83
2018-07-28T01:46:13.651Z,25.81
2018-07-28T01:47:14.370Z,25.78
2018-07-28T01:48:15.106Z,25.80
2018-07-28T01:49:15.825Z,25.78
2018-07-28T01:50:16.546Z,25.80
2018-07-28T01:51:17.271Z,25.81
2018-07-28T01:52:18.004Z,25.77
2018-07-28T01:53:18.738Z,25.80
2018-07-28T01:54:19.459Z,25.81
2018-07-28T01:55:20.200Z,25.72
2018-07-28T01:56:20.917Z,25.77
2018-07-28T01:57:21.639Z,25.72
2018-07-28T01:58:22.377Z,25.81
2018-07-28T01:59:23.099Z,25.69
2018-07-28T02:00:23.823Z,25.69
2018-07-28T02:01:24.541Z,25.73
2018-07-28T02:02:25.263Z,25.73
2018-07-28T02:03:26.001Z,25.70
2018-07-28T02:04:26.722Z,25.69
2018-07-28T02:05:27.445Z,25.75
2018-07-28T02:06:28.166Z,25.70
2018-07-28T02:07:28.887Z,25.75
2018-07-28T02:08:29.610Z,25.72
2018-07-28T02:09:30.332Z,25.73
2018-07-28T02:10:31.069Z,25.69
2018-07-28T02:11:31.792Z,25.68
2018-07-28T02:12:32.513Z,25.68
2018-07-28T02:13:33.239Z,25.65
2018-07-28T02:14:33.961Z,25.66
2018-07-28T02:15:34.683Z,25.66
2018-07-28T02:16:35.407Z,25.60
2018-07-28T02:17:36.129Z,25.62
2018-07-28T02:18:36.852Z,25.59
2018-07-28T02:19:37.575Z,25.62
2018-07-28T02:20:38.296Z,25.51
2018-07-28T02:21:39.018Z,25.53
2018-07-28T02:22:39.738Z,25.53
2018-07-28T02:23:40.461Z,25.54
2018-07-28T02:24:41.184Z,25.43
2018-07-28T02:25:41.908Z,25.36
2018-07-28T02:26:42.628Z,25.44
2018-07-28T02:27:43.349Z,25.44
2018-07-28T02:28:44.084Z,25.41
2018-07-28T02:29:44.805Z,25.38
2018-07-28T02:30:45.543Z,25.43
2018-07-28T02:31:46.267Z,25.43
2018-07-28T02:32:46.987Z,25.43
2018-07-28T02:33:47.707Z,25.38
2018-07-28T02:34:48.429Z,25.36
2018-07-28T02:35:49.166Z,25.25
2018-07-28T02:36:49.884Z,25.29
2018-07-28T02:37:50.606Z,25.28
2018-07-28T02:38:51.327Z,25.28
2018-07-28T02:39:52.047Z,25.33
2018-07-28T02:40:52.768Z,25.29
2018-07-28T02:41:53.492Z,25.25
2018-07-28T02:42:54.216Z,25.28
2018-07-28T02:43:54.952Z,25.26
2018-07-28T02:44:55.674Z,25.26
2018-07-28T02:45:56.396Z,25.32
2018-07-28T02:46:57.121Z,25.26
2018-07-28T02:47:57.852Z,25.23
2018-07-28T02:48:58.575Z,25.26
2018-07-28T02:49:59.311Z,25.23
2018-07-28T02:51:00.035Z,25.23
2018-07-28T02:52:00.772Z,25.17
2018-07-28T02:53:01.509Z,25.25
2018-07-28T02:54:02.231Z,25.18
2018-07-28T02:55:02.952Z,25.23
2018-07-28T02:56:03.687Z,25.18
2018-07-28T02:57:04.409Z,25.18
2018-07-28T02:58:05.129Z,25.14
2018-07-28T02:59:05.864Z,25.21
2018-07-28T03:00:06.661Z,25.11
2018-07-28T03:01:07.305Z,25.11
2018-07-28T03:02:08.026Z,25.07
2018-07-28T03:03:08.745Z,25.06
2018-07-28T03:04:09.465Z,25.08
2018-07-28T03:05:10.186Z,24.98
2018-07-28T03:06:10.906Z,25.01
2018-07-28T03:07:11.628Z,25.01
2018-07-28T03:08:12.365Z,24.98
2018-07-28T03:09:13.084Z,24.93
2018-07-28T03:10:13.805Z,24.93
2018-07-28T03:11:14.526Z,24.88
2018-07-28T03:12:15.248Z,24.85
2018-07-28T03:13:15.970Z,24.86
2018-07-28T03:14:16.692Z,24.81
2018-07-28T03:15:17.411Z,24.89
2018-07-28T03:16:18.147Z,24.88
2018-07-28T03:17:18.870Z,24.91
2018-07-28T03:18:19.602Z,24.89
2018-07-28T03:19:20.321Z,24.86
2018-07-28T03:20:21.042Z,24.84
2018-07-28T03:21:21.761Z,24.81
2018-07-28T03:22:22.483Z,24.76
2018-07-28T03:23:23.204Z,24.78
2018-07-28T03:24:23.942Z,24.80
2018-07-28T03:25:24.664Z,24.77
2018-07-28T03:26:25.399Z,24.76
2018-07-28T03:27:26.119Z,24.74
2018-07-28T03:28:26.843Z,24.81
2018-07-28T03:29:27.565Z,24.77
2018-07-28T03:30:28.286Z,24.78
2018-07-28T03:31:29.022Z,24.70
2018-07-28T03:32:29.744Z,24.76
2018-07-28T03:33:30.466Z,24.70
2018-07-28T03:34:31.189Z,24.76
2018-07-28T03:35:31.911Z,24.74
2018-07-28T03:36:32.633Z,24.74
2018-07-28T03:37:33.353Z,24.76
2018-07-28T03:38:34.074Z,24.73
2018-07-28T03:39:34.812Z,24.78
2018-07-28T03:40:35.551Z,24.69
2018-07-28T03:41:36.272Z,24.74
2018-07-28T03:42:36.996Z,24.74
2018-07-28T03:43:37.717Z,24.60
2018-07-28T03:44:38.439Z,24.60
2018-07-28T03:45:39.177Z,24.61
2018-07-28T03:46:39.902Z,24.66
2018-07-28T03:47:40.639Z,24.61
2018-07-28T03:48:41.361Z,24.61
2018-07-28T03:49:42.085Z,24.66
2018-07-28T03:50:42.808Z,24.61
2018-07-28T03:51:43.531Z,24.60
2018-07-28T03:52:44.255Z,24.55
2018-07-28T03:53:44.991Z,24.53
2018-07-28T03:54:45.716Z,24.55
2018-07-28T03:55:46.438Z,24.47
2018-07-28T03:56:47.163Z,24.55
2018-07-28T03:57:47.890Z,24.51
2018-07-28T03:58:48.625Z,24.57
2018-07-28T03:59:49.365Z,24.50
2018-07-28T04:00:50.099Z,24.50
2018-07-28T04:01:50.825Z,24.47
2018-07-28T04:02:51.545Z,24.48
2018-07-28T04:03:52.270Z,24.50
2018-07-28T04:04:53.008Z,24.47
2018-07-28T04:05:53.730Z,24.45
2018-07-28T04:06:54.454Z,24.48
2018-07-28T04:07:55.192Z,24.45
2018-07-28T04:08:55.934Z,24.40
2018-07-28T04:09:56.656Z,24.39
2018-07-28T04:10:57.382Z,24.39
2018-07-28T04:11:58.103Z,24.30
2018-07-28T04:12:58.842Z,24.24
2018-07-28T04:13:59.565Z,24.23
2018-07-28T04:15:00.288Z,24.29
2018-07-28T04:16:01.016Z,24.26
2018-07-28T04:17:01.753Z,24.30
2018-07-28T04:18:02.477Z,24.24
2018-07-28T04:19:03.201Z,24.24
2018-07-28T04:20:03.923Z,24.23
2018-07-28T04:21:04.659Z,24.21
2018-07-28T04:22:05.383Z,24.23
2018-07-28T04:23:06.105Z,24.21
2018-07-28T04:24:06.828Z,24.24
2018-07-28T04:25:07.553Z,24.28
2018-07-28T04:26:08.290Z,24.20
2018-07-28T04:27:09.012Z,24.21
2018-07-28T04:28:09.738Z,24.20
2018-07-28T04:29:10.458Z,24.13
2018-07-28T04:30:11.183Z,24.20
2018-07-28T04:31:11.907Z,24.21
2018-07-28T04:32:12.632Z,24.28
2018-07-28T04:33:13.353Z,24.18
2018-07-28T04:34:14.078Z,24.13
2018-07-28T04:35:14.804Z,24.13
2018-07-28T04:36:15.525Z,24.13
2018-07-28T04:37:16.251Z,24.14
2018-07-28T04:38:16.974Z,24.08
2018-07-28T04:39:17.699Z,24.10
2018-07-28T04:40:18.425Z,24.03
2018-07-28T04:41:19.158Z,24.03
2018-07-28T04:42:19.880Z,24.06
2018-07-28T04:43:20.601Z,24.08
2018-07-28T04:44:21.336Z,24.08
2018-07-28T04:45:22.061Z,23.99
2018-07-28T04:46:22.798Z,24.08
2018-07-28T04:47:23.518Z,24.13
2018-07-28T04:48:24.272Z,24.13
2018-07-28T04:49:24.999Z,24.06
2018-07-28T04:50:25.720Z,23.98
2018-07-28T04:51:26.454Z,24.03
2018-07-28T04:52:27.174Z,24.02
2018-07-28T04:53:27.900Z,23.96
2018-07-28T04:54:28.660Z,24.03
2018-07-28T04:55:29.385Z,24.06
2018-07-28T04:56:30.108Z,24.06
2018-07-28T04:57:30.849Z,24.02
2018-07-28T04:58:31.574Z,24.06
2018-07-28T04:59:32.298Z,24.08
2018-07-28T05:00:33.848Z,24.10
2018-07-28T05:01:34.587Z,24.05
2018-07-28T05:02:35.315Z,24.08
2018-07-28T05:03:36.035Z,24.05
2018-07-28T05:04:36.772Z,24.03
2018-07-28T05:05:37.496Z,24.02
2018-07-28T05:06:38.232Z,24.05
2018-07-28T05:07:39.208Z,24.05
2018-07-28T05:08:39.779Z,24.11
2018-07-28T05:09:40.498Z,24.08
2018-07-28T05:10:41.219Z,24.08
2018-07-28T05:11:41.941Z,23.99
2018-07-28T05:12:42.680Z,23.96
2018-07-28T05:13:43.403Z,24.03
2018-07-28T05:14:44.126Z,23.96
2018-07-28T05:15:44.851Z,23.96
2018-07-28T05:16:45.586Z,23.95
2018-07-28T05:17:46.310Z,23.92
2018-07-28T05:18:47.034Z,23.93
2018-07-28T05:19:47.790Z,24.02
2018-07-28T05:20:48.549Z,23.92
2018-07-28T05:21:49.288Z,23.95
2018-07-28T05:22:50.012Z,24.03
2018-07-28T05:23:50.744Z,23.92
2018-07-28T05:24:51.462Z,23.98
2018-07-28T05:25:52.188Z,24.01
2018-07-28T05:26:52.912Z,24.03
2018-07-28T05:27:53.641Z,23.93
2018-07-28T05:28:54.367Z,23.95
2018-07-28T05:29:55.093Z,23.99
2018-07-28T05:30:55.830Z,23.99
2018-07-28T05:31:56.569Z,24.05
2018-07-28T05:32:57.292Z,24.02
2018-07-28T05:33:58.017Z,23.95
2018-07-28T05:34:58.751Z,24.03
2018-07-28T05:35:59.474Z,24.03
2018-07-28T05:37:00.205Z,24.13
2018-07-28T05:38:00.920Z,24.14
2018-07-28T05:39:01.699Z,24.18
2018-07-28T05:40:02.380Z,24.21
2018-07-28T05:41:03.122Z,24.16
2018-07-28T05:42:03.850Z,24.21
2018-07-28T05:43:04.571Z,24.24
2018-07-28T05:44:05.293Z,24.28
2018-07-28T05:45:06.017Z,24.21
2018-07-28T05:46:06.743Z,24.32
2018-07-28T05:47:07.480Z,24.20
2018-07-28T05:48:08.207Z,24.28
2018-07-28T05:49:08.930Z,24.26
2018-07-28T05:50:09.720Z,24.28
2018-07-28T05:51:10.381Z,24.39
2018-07-28T05:52:11.107Z,24.45
2018-07-28T05:53:11.834Z,24.43
2018-07-28T05:54:12.582Z,24.55
2018-07-28T05:55:13.324Z,24.65
2018-07-28T05:56:14.051Z,24.65
2018-07-28T05:57:14.779Z,24.76
2018-07-28T05:58:15.506Z,24.74
2018-07-28T05:59:16.235Z,24.76
2018-07-28T06:00:16.962Z,24.74
2018-07-28T06:01:17.703Z,24.84
2018-07-28T06:02:18.493Z,24.80
2018-07-28T06:03:19.167Z,24.77
2018-07-28T06:04:19.892Z,24.85
2018-07-28T06:05:20.619Z,24.91
2018-07-28T06:06:21.347Z,24.98
2018-07-28T06:07:22.075Z,25.08
2018-07-28T06:08:22.818Z,25.07
2018-07-28T06:09:23.544Z,25.03
2018-07-28T06:10:24.271Z,24.99
2018-07-28T06:11:24.997Z,25.04
2018-07-28T06:12:25.726Z,25.10
2018-07-28T06:13:26.453Z,25.06
2018-07-28T06:14:27.182Z,25.06
2018-07-28T06:15:27.908Z,24.99
2018-07-28T06:16:28.653Z,24.89
2018-07-28T06:17:29.395Z,24.89
2018-07-28T06:18:30.122Z,25.06
2018-07-28T06:19:30.862Z,25.03
2018-07-28T06:20:31.604Z,25.16
2018-07-28T06:21:32.332Z,25.14
